Time;durP1;ratioP1;P1;durP2;ratioP2;P2;SDS_P1;SDS_P2;PMS_P1;PMS_P2;Temp;Humidity;BMP_temperature;BMP_pressure;BME280_temperature;BME280_humidity;BME280_pressure;Samples;Min_cycle;Max_cycle;Signal;HPM_P1;HPM_P2
2023/12/16 00:00:13;;;;;;;4.87;3.70;;;;;;;;;;5037606;28;20219;-61
2023/12/16 00:02:41;;;;;;;4.33;3.60;;;;;;;;;;5037125;28;20539;-61
2023/12/16 00:05:09;;;;;;;4.33;3.37;;;;;;;;;;5037202;28;20235;-61
2023/12/16 00:07:38;;;;;;;6.30;3.93;;;;;;;;;;5037573;28;20204;-61
2023/12/16 00:10:07;;;;;;;3.93;2.97;;;;;;;;;;5037519;28;20647;-61
2023/12/16 00:12:35;;;;;;;6.97;3.90;;;;;;;;;;5037175;28;20234;-61
2023/12/16 00:15:06;;;;;;;5.77;3.40;;;;;;;;;;5036970;28;20269;-61
2023/12/16 00:17:34;;;;;;;5.37;3.07;;;;;;;;;;5024745;28;20325;-61
2023/12/16 00:20:03;;;;;;;5.60;3.80;;;;;;;;;;5036587;28;20612;-61
2023/12/16 00:22:32;;;;;;;5.10;3.27;;;;;;;;;;5037316;28;20225;-61
2023/12/16 00:25:00;;;;;;;3.70;3.40;;;;;;;;;;5037062;28;20223;-61
2023/12/16 00:27:34;;;;;;;4.07;3.13;;;;;;;;;;5037273;28;20234;-61
2023/12/16 00:30:03;;;;;;;4.17;3.77;;;;;;;;;;5036920;28;20234;-61
2023/12/16 00:32:32;;;;;;;4.70;3.53;;;;;;;;;;5034290;28;20674;-61
2023/12/16 00:35:00;;;;;;;7.07;3.47;;;;;;;;;;5040839;28;20219;-61
2023/12/16 00:37:28;;;;;;;3.73;3.30;;;;;;;;;;5041256;28;20207;-62
2023/12/16 00:39:57;;;;;;;3.80;3.43;;;;;;;;;;5041232;28;20204;-61
2023/12/16 00:42:25;;;;;;;4.73;3.43;;;;;;;;;;5040749;28;20591;-61
2023/12/16 00:44:54;;;;;;;5.27;3.73;;;;;;;;;;5039709;28;20219;-61
2023/12/16 00:47:22;;;;;;;4.90;3.40;;;;;;;;;;5041146;28;20203;-61
2023/12/16 00:49:51;;;;;;;4.83;3.63;;;;;;;;;;5040545;28;20208;-61
2023/12/16 00:52:19;;;;;;;4.23;3.83;;;;;;;;;;5040261;28;20278;-61
2023/12/16 00:54:48;;;;;;;4.07;3.67;;;;;;;;;;5040166;28;20593;-61
2023/12/16 00:57:16;;;;;;;7.17;3.47;;;;;;;;;;5040917;28;20200;-61
2023/12/16 00:59:44;;;;;;;3.57;3.10;;;;;;;;;;5027881;28;20196;-61
2023/12/16 01:02:12;;;;;;;4.40;4.00;;;;;;;;;;5040642;28;20223;-61
2023/12/16 01:04:41;;;;;;;6.17;4.23;;;;;;;;;;5040524;28;20219;-61
2023/12/16 01:07:10;;;;;;;4.07;3.23;;;;;;;;;;5040239;28;20326;-61
2023/12/16 01:09:39;;;;;;;3.97;3.57;;;;;;;;;;5040705;28;20238;-61
2023/12/16 01:12:08;;;;;;;5.27;3.93;;;;;;;;;;5040343;28;20200;-61
2023/12/16 01:14:36;;;;;;;4.63;3.40;;;;;;;;;;5040243;28;20226;-61
2023/12/16 01:17:04;;;;;;;3.53;3.23;;;;;;;;;;5040148;28;20230;-61
2023/12/16 01:19:35;;;;;;;5.00;4.00;;;;;;;;;;5040290;28;20204;-61
2023/12/16 01:22:03;;;;;;;4.33;3.30;;;;;;;;;;5040232;28;20223;-61
2023/12/16 01:24:36;;;;;;;3.40;3.10;;;;;;;;;;5040130;28;20269;-61
2023/12/16 01:27:05;;;;;;;3.60;3.30;;;;;;;;;;5039594;28;20208;-61
2023/12/16 01:29:33;;;;;;;4.33;3.60;;;;;;;;;;5039772;28;20269;-61
2023/12/16 01:32:01;;;;;;;4.37;3.53;;;;;;;;;;5039836;28;20204;-61
2023/12/16 01:34:29;;;;;;;5.00;3.90;;;;;;;;;;5039806;28;20224;-61
2023/12/16 01:36:57;;;;;;;6.87;4.20;;;;;;;;;;5039726;28;20207;-60
2023/12/16 01:39:25;;;;;;;4.20;3.47;;;;;;;;;;5039736;28;20210;-61
2023/12/16 01:41:55;;;;;;;4.63;3.70;;;;;;;;;;5039879;28;20674;-61
2023/12/16 01:44:23;;;;;;;4.40;3.87;;;;;;;;;;5038926;28;20223;-61
2023/12/16 01:46:51;;;;;;;4.77;3.40;;;;;;;;;;5040096;28;20207;-60
2023/12/16 01:49:19;;;;;;;4.23;3.57;;;;;;;;;;5039491;28;20228;-61
2023/12/16 01:51:48;;;;;;;3.33;3.03;;;;;;;;;;5039836;28;20204;-61
2023/12/16 01:54:16;;;;;;;4.20;3.27;;;;;;;;;;5039618;28;20255;-61
2023/12/16 01:56:45;;;;;;;3.40;3.10;;;;;;;;;;5039470;28;20253;-61
2023/12/16 01:59:22;;;;;;;4.23;3.30;;;;;;;;;;5039461;28;20212;-61
2023/12/16 02:02:00;;;;;;;3.50;3.20;;;;;;;;;;5039243;28;20282;-61
2023/12/16 02:04:41;;;;;;;6.67;3.37;;;;;;;;;;5039186;28;20662;-61
2023/12/16 02:07:15;;;;;;;4.00;3.17;;;;;;;;;;5039042;28;20203;-61
2023/12/16 02:09:49;;;;;;;4.93;3.40;;;;;;;;;;5039504;28;20250;-60
2023/12/16 02:12:25;;;;;;;3.40;3.10;;;;;;;;;;5039347;28;20286;-61
2023/12/16 02:15:00;;;;;;;4.13;3.13;;;;;;;;;;5032172;28;20251;-61
2023/12/16 02:17:42;;;;;;;3.10;2.80;;;;;;;;;;5039036;28;20221;-61
2023/12/16 02:20:17;;;;;;;4.97;3.50;;;;;;;;;;5038650;28;20219;-61
2023/12/16 02:22:51;;;;;;;3.60;2.70;;;;;;;;;;5038916;28;20224;-61
2023/12/16 02:25:21;;;;;;;7.00;4.70;;;;;;;;;;5039086;28;20199;-61
2023/12/16 02:27:49;;;;;;;4.20;3.80;;;;;;;;;;5039362;28;20291;-61
2023/12/16 02:30:20;;;;;;;4.43;3.00;;;;;;;;;;5038887;28;20214;-60
2023/12/16 02:32:48;;;;;;;3.67;2.83;;;;;;;;;;5038849;28;20204;-61
2023/12/16 02:35:16;;;;;;;3.97;3.03;;;;;;;;;;5038623;28;20202;-61
2023/12/16 02:37:45;;;;;;;5.03;3.13;;;;;;;;;;5038781;28;20736;-61
2023/12/16 02:40:13;;;;;;;3.67;2.80;;;;;;;;;;5038430;28;20215;-61
2023/12/16 02:42:43;;;;;;;3.97;2.70;;;;;;;;;;5038545;28;20227;-61
2023/12/16 02:45:11;;;;;;;6.57;3.13;;;;;;;;;;5027046;28;20208;-61
2023/12/16 02:47:39;;;;;;;4.83;2.70;;;;;;;;;;5038409;28;20249;-61
2023/12/16 02:50:08;;;;;;;3.33;3.03;;;;;;;;;;5038423;28;20290;-61
2023/12/16 02:52:36;;;;;;;4.70;2.60;;;;;;;;;;5038248;28;20643;-61
2023/12/16 02:55:04;;;;;;;3.20;2.60;;;;;;;;;;5038472;28;20633;-61
2023/12/16 02:57:33;;;;;;;3.10;2.80;;;;;;;;;;5037127;28;20752;-61
2023/12/16 03:00:03;;;;;;;3.33;2.80;;;;;;;;;;5038607;28;20203;-61
2023/12/16 03:02:32;;;;;;;3.13;2.63;;;;;;;;;;5037681;28;20212;-60
2023/12/16 03:05:00;;;;;;;4.93;2.80;;;;;;;;;;5037896;28;20223;-61
2023/12/16 03:07:28;;;;;;;3.37;3.07;;;;;;;;;;5038112;28;20203;-61
2023/12/16 03:09:56;;;;;;;4.13;3.13;;;;;;;;;;5038609;28;20239;-61
2023/12/16 03:12:25;;;;;;;2.70;2.50;;;;;;;;;;5037842;28;20207;-61
2023/12/16 03:14:53;;;;;;;3.53;3.00;;;;;;;;;;5038035;28;20227;-61
2023/12/16 03:17:22;;;;;;;7.07;3.40;;;;;;;;;;5038024;28;20247;-61
2023/12/16 03:19:50;;;;;;;3.13;2.83;;;;;;;;;;5037974;28;20199;-61
2023/12/16 03:22:18;;;;;;;4.13;3.50;;;;;;;;;;5037774;28;20240;-61
2023/12/16 03:24:47;;;;;;;4.77;3.40;;;;;;;;;;5038072;28;20229;-61
2023/12/16 03:27:15;;;;;;;4.07;3.23;;;;;;;;;;5037694;28;20640;-62
2023/12/16 03:29:43;;;;;;;5.87;3.57;;;;;;;;;;5038036;28;20286;-61
2023/12/16 03:32:11;;;;;;;5.37;2.97;;;;;;;;;;5025698;28;20257;-61
2023/12/16 03:34:40;;;;;;;6.20;3.03;;;;;;;;;;5037414;28;20294;-61
2023/12/16 03:37:08;;;;;;;3.83;3.37;;;;;;;;;;5038259;28;20674;-61
2023/12/16 03:39:40;;;;;;;4.00;3.40;;;;;;;;;;5037398;28;20222;-61
2023/12/16 03:42:08;;;;;;;4.10;3.70;;;;;;;;;;5038023;28;20204;-61
2023/12/16 03:44:36;;;;;;;6.07;3.60;;;;;;;;;;5037369;28;20246;-61
2023/12/16 03:47:04;;;;;;;4.90;3.67;;;;;;;;;;5037722;28;20207;-61
2023/12/16 03:49:32;;;;;;;5.50;3.40;;;;;;;;;;5037084;28;20225;-61
2023/12/16 03:52:02;;;;;;;4.47;3.57;;;;;;;;;;5037805;28;20208;-61
2023/12/16 03:54:30;;;;;;;4.33;3.30;;;;;;;;;;5037393;28;20224;-61
2023/12/16 03:56:58;;;;;;;5.37;3.40;;;;;;;;;;5037545;28;20744;-61
2023/12/16 03:59:27;;;;;;;4.07;2.80;;;;;;;;;;5037186;28;20196;-61
2023/12/16 04:01:55;;;;;;;4.50;3.10;;;;;;;;;;5037285;28;20608;-61
2023/12/16 04:04:23;;;;;;;3.03;2.47;;;;;;;;;;5036987;28;20667;-61
2023/12/16 04:06:51;;;;;;;5.97;3.00;;;;;;;;;;5037255;28;20263;-61
2023/12/16 04:09:21;;;;;;;3.30;3.00;;;;;;;;;;5036809;28;20204;-61
2023/12/16 04:11:48;;;;;;;6.60;3.07;;;;;;;;;;5037405;28;20238;-60
2023/12/16 04:14:16;;;;;;;3.13;2.83;;;;;;;;;;5037055;28;20620;-61
2023/12/16 04:16:44;;;;;;;3.20;2.90;;;;;;;;;;5037331;28;20207;-61
2023/12/16 04:19:12;;;;;;;3.37;2.57;;;;;;;;;;5025169;28;20755;-61
2023/12/16 04:21:41;;;;;;;4.07;3.30;;;;;;;;;;5036976;28;20208;-61
2023/12/16 04:24:09;;;;;;;3.53;2.37;;;;;;;;;;5037415;28;20235;-61
2023/12/16 04:26:38;;;;;;;3.03;2.73;;;;;;;;;;5037163;28;20211;-61
2023/12/16 04:29:06;;;;;;;4.30;3.20;;;;;;;;;;5037099;28;20258;-61
2023/12/16 04:31:34;;;;;;;6.53;3.60;;;;;;;;;;5036795;28;20204;-61
2023/12/16 04:34:02;;;;;;;3.73;3.30;;;;;;;;;;5026553;28;20219;-60
2023/12/16 04:36:31;;;;;;;8.23;2.70;;;;;;;;;;5036533;28;20656;-61
2023/12/16 04:38:59;;;;;;;6.10;3.00;;;;;;;;;;5037818;28;20208;-60
2023/12/16 04:41:27;;;;;;;3.70;2.87;;;;;;;;;;5036736;28;20227;-61
2023/12/16 04:43:57;;;;;;;3.70;2.83;;;;;;;;;;5037454;28;20231;-61
2023/12/16 04:46:25;;;;;;;5.77;3.30;;;;;;;;;;5037005;28;20204;-61
2023/12/16 04:48:54;;;;;;;3.60;2.90;;;;;;;;;;5037094;28;20282;-61
2023/12/16 04:51:22;;;;;;;2.80;2.50;;;;;;;;;;5036528;28;20199;-61
2023/12/16 04:53:50;;;;;;;3.03;2.83;;;;;;;;;;5036970;28;20219;-61
2023/12/16 04:56:18;;;;;;;3.23;2.90;;;;;;;;;;5036574;28;20258;-61
2023/12/16 04:58:46;;;;;;;2.87;2.57;;;;;;;;;;5037130;28;20234;-61
2023/12/16 05:01:15;;;;;;;2.83;2.63;;;;;;;;;;5036830;28;20204;-61
2023/12/16 05:03:44;;;;;;;2.50;2.30;;;;;;;;;;5036442;28;20673;-61
2023/12/16 05:06:12;;;;;;;5.13;2.37;;;;;;;;;;5023830;28;20243;-61
2023/12/16 05:08:40;;;;;;;3.03;2.30;;;;;;;;;;5033868;28;20227;-61
2023/12/16 05:11:09;;;;;;;2.53;2.00;;;;;;;;;;5036940;28;20204;-62
2023/12/16 05:13:37;;;;;;;2.73;2.23;;;;;;;;;;5036565;28;20215;-61
2023/12/16 05:16:05;;;;;;;2.27;1.80;;;;;;;;;;5036858;28;20207;-61
2023/12/16 05:18:37;;;;;;;2.53;2.33;;;;;;;;;;5036564;28;20208;-61
2023/12/16 05:21:05;;;;;;;2.47;2.27;;;;;;;;;;5039311;28;20200;-61
2023/12/16 05:23:33;;;;;;;2.50;2.30;;;;;;;;;;5039996;28;20247;-61
2023/12/16 05:26:01;;;;;;;2.10;1.90;;;;;;;;;;5040158;28;20593;-61
2023/12/16 05:28:30;;;;;;;3.03;2.53;;;;;;;;;;5040223;28;20207;-61
2023/12/16 05:30:58;;;;;;;3.27;2.13;;;;;;;;;;5040138;28;20543;-61
2023/12/16 05:33:26;;;;;;;2.33;1.77;;;;;;;;;;5039609;28;20224;-61
2023/12/16 05:35:55;;;;;;;2.47;2.17;;;;;;;;;;5040092;28;20246;-61
2023/12/16 05:38:24;;;;;;;2.27;2.10;;;;;;;;;;5039619;28;20200;-61
2023/12/16 05:40:53;;;;;;;4.00;2.13;;;;;;;;;;5040221;28;20203;-61
2023/12/16 05:43:21;;;;;;;6.47;2.50;;;;;;;;;;5039759;28;20224;-61
2023/12/16 05:45:49;;;;;;;3.03;2.00;;;;;;;;;;5040003;28;20208;-61
2023/12/16 05:48:17;;;;;;;3.97;2.53;;;;;;;;;;5039677;28;20199;-61
2023/12/16 05:50:45;;;;;;;3.23;1.83;;;;;;;;;;5039669;28;20203;-61
2023/12/16 05:53:14;;;;;;;2.60;2.00;;;;;;;;;;5039338;28;20250;-61
2023/12/16 05:55:45;;;;;;;3.20;2.10;;;;;;;;;;5039656;28;20200;-61
2023/12/16 05:58:13;;;;;;;3.90;2.03;;;;;;;;;;5039652;28;20647;-61
2023/12/16 06:00:41;;;;;;;2.27;2.07;;;;;;;;;;5039491;28;20200;-61
2023/12/16 06:03:09;;;;;;;2.57;2.37;;;;;;;;;;5039551;28;20238;-61
2023/12/16 06:05:37;;;;;;;2.37;2.17;;;;;;;;;;5038952;28;20271;-61
2023/12/16 06:08:05;;;;;;;5.33;2.50;;;;;;;;;;5039726;28;20206;-61
2023/12/16 06:10:35;;;;;;;2.07;1.97;;;;;;;;;;5039269;28;20269;-61
2023/12/16 06:13:03;;;;;;;4.67;2.53;;;;;;;;;;5039427;28;20226;-61
2023/12/16 06:15:31;;;;;;;2.40;2.20;;;;;;;;;;5038535;28;20293;-62
2023/12/16 06:18:03;;;;;;;2.53;2.03;;;;;;;;;;5030366;28;20659;-61
2023/12/16 06:20:32;;;;;;;3.50;2.10;;;;;;;;;;5038974;28;20210;-61
2023/12/16 06:23:00;;;;;;;2.50;2.30;;;;;;;;;;5039181;28;20297;-61
2023/12/16 06:25:28;;;;;;;3.97;2.50;;;;;;;;;;5038818;28;20224;-61
2023/12/16 06:27:57;;;;;;;1.97;1.87;;;;;;;;;;5039270;28;20214;-61
2023/12/16 06:30:25;;;;;;;3.10;2.33;;;;;;;;;;5038463;28;20195;-61
2023/12/16 06:32:53;;;;;;;3.10;2.33;;;;;;;;;;5038709;28;20203;-61
2023/12/16 06:35:21;;;;;;;2.90;2.27;;;;;;;;;;5038668;28;20204;-61
2023/12/16 06:37:50;;;;;;;2.30;2.10;;;;;;;;;;5039046;28;20203;-61
2023/12/16 06:40:18;;;;;;;3.03;2.40;;;;;;;;;;5027065;28;20610;-61
2023/12/16 06:42:46;;;;;;;2.67;2.47;;;;;;;;;;5036945;28;20211;-60
2023/12/16 06:45:15;;;;;;;3.13;2.60;;;;;;;;;;5030361;28;20224;-61
2023/12/16 06:47:44;;;;;;;5.10;3.00;;;;;;;;;;5032544;28;20654;-61
2023/12/16 06:50:14;;;;;;;2.93;2.73;;;;;;;;;;5038448;28;20207;-61
2023/12/16 06:52:47;;;;;;;2.90;2.30;;;;;;;;;;5038176;28;20229;-61
2023/12/16 06:55:15;;;;;;;2.77;2.50;;;;;;;;;;5038903;28;20254;-61
2023/12/16 06:57:45;;;;;;;2.67;2.47;;;;;;;;;;5038110;28;20206;-61
2023/12/16 07:00:13;;;;;;;4.30;3.00;;;;;;;;;;5038819;28;20211;-61
2023/12/16 07:02:43;;;;;;;2.67;2.47;;;;;;;;;;5037144;28;20609;-61
2023/12/16 07:05:12;;;;;;;3.30;2.30;;;;;;;;;;5037859;28;20259;-60
2023/12/16 07:07:40;;;;;;;3.13;2.17;;;;;;;;;;5038290;28;20196;-61
2023/12/16 07:10:09;;;;;;;2.50;2.30;;;;;;;;;;5037898;28;20210;-61
2023/12/16 07:12:38;;;;;;;3.90;2.20;;;;;;;;;;5037853;28;20720;-61
2023/12/16 07:15:06;;;;;;;2.30;2.13;;;;;;;;;;5037466;28;20208;-61
2023/12/16 07:17:35;;;;;;;2.93;2.67;;;;;;;;;;5037832;28;20207;-61
2023/12/16 07:20:05;;;;;;;3.10;2.23;;;;;;;;;;5036872;28;20278;-61
2023/12/16 07:22:33;;;;;;;3.10;2.50;;;;;;;;;;5037473;28;20204;-60
2023/12/16 07:25:02;;;;;;;3.20;2.03;;;;;;;;;;5037731;28;20231;-61
2023/12/16 07:27:31;;;;;;;3.33;2.37;;;;;;;;;;5037452;28;20200;-60
2023/12/16 07:29:59;;;;;;;2.50;2.30;;;;;;;;;;5034518;28;20196;-61
2023/12/16 07:32:27;;;;;;;2.30;2.10;;;;;;;;;;5036878;28;20204;-61
2023/12/16 07:34:56;;;;;;;2.30;2.00;;;;;;;;;;5037301;28;20227;-61
2023/12/16 07:37:25;;;;;;;2.67;2.13;;;;;;;;;;5037937;28;20204;-61
2023/12/16 07:39:53;;;;;;;3.57;2.53;;;;;;;;;;5037576;28;20223;-62
2023/12/16 07:42:21;;;;;;;4.50;2.40;;;;;;;;;;5037180;28;20235;-60
2023/12/16 07:44:50;;;;;;;4.33;3.37;;;;;;;;;;5033749;28;20235;-61
2023/12/16 07:47:18;;;;;;;4.00;3.60;;;;;;;;;;5037303;28;20242;-61
2023/12/16 07:49:46;;;;;;;4.73;3.37;;;;;;;;;;5037403;28;20204;-61
2023/12/16 07:52:16;;;;;;;6.43;3.20;;;;;;;;;;5036253;28;20205;-61
2023/12/16 07:54:46;;;;;;;2.83;2.50;;;;;;;;;;5037474;28;20226;-61
2023/12/16 07:57:14;;;;;;;4.60;2.47;;;;;;;;;;5037164;28;20210;-60
2023/12/16 07:59:42;;;;;;;3.83;3.07;;;;;;;;;;5037488;28;20195;-61
2023/12/16 08:02:10;;;;;;;3.10;2.90;;;;;;;;;;5037445;28;20721;-60
2023/12/16 08:04:39;;;;;;;2.83;2.40;;;;;;;;;;5036842;28;20223;-60
2023/12/16 08:07:07;;;;;;;2.70;2.50;;;;;;;;;;5037016;28;20255;-60
2023/12/16 08:09:35;;;;;;;3.57;2.57;;;;;;;;;;5037134;28;20565;-60
2023/12/16 08:12:08;;;;;;;2.63;2.43;;;;;;;;;;5037079;28;20203;-60
2023/12/16 08:14:36;;;;;;;3.83;2.40;;;;;;;;;;5036941;28;20529;-60
2023/12/16 08:17:04;;;;;;;2.67;2.47;;;;;;;;;;5037208;28;20203;-60
2023/12/16 08:19:32;;;;;;;5.30;3.20;;;;;;;;;;5036771;28;20273;-61
2023/12/16 08:22:00;;;;;;;3.03;2.77;;;;;;;;;;5036984;28;20223;-61
2023/12/16 08:24:30;;;;;;;2.70;2.50;;;;;;;;;;5037065;28;20694;-61
2023/12/16 08:26:58;;;;;;;2.60;2.40;;;;;;;;;;5036997;28;20250;-66
2023/12/16 08:29:27;;;;;;;3.03;2.73;;;;;;;;;;5037228;28;20282;-60
2023/12/16 08:31:55;;;;;;;3.03;2.40;;;;;;;;;;5036448;28;20257;-60
2023/12/16 08:34:23;;;;;;;4.10;2.70;;;;;;;;;;5037036;28;20231;-61
2023/12/16 08:36:52;;;;;;;2.73;2.53;;;;;;;;;;5037170;28;20227;-60
2023/12/16 08:39:21;;;;;;;3.23;2.90;;;;;;;;;;5037299;28;20231;-60
2023/12/16 08:41:49;;;;;;;4.03;2.60;;;;;;;;;;5036903;28;20208;-60
2023/12/16 08:44:17;;;;;;;2.70;2.50;;;;;;;;;;5036591;28;20623;-60
2023/12/16 08:46:46;;;;;;;2.70;2.40;;;;;;;;;;5037266;28;20223;-61
2023/12/16 08:49:14;;;;;;;2.53;2.33;;;;;;;;;;5036722;28;20438;-60
2023/12/16 08:51:42;;;;;;;2.90;2.63;;;;;;;;;;5037106;28;20283;-60
2023/12/16 08:54:10;;;;;;;3.03;2.70;;;;;;;;;;5037083;28;20625;-60
2023/12/16 08:56:39;;;;;;;3.77;2.90;;;;;;;;;;5040762;28;20492;-60
2023/12/16 08:59:07;;;;;;;2.83;2.50;;;;;;;;;;5040235;28;20992;-60
2023/12/16 09:01:35;;;;;;;3.23;2.67;;;;;;;;;;5040950;28;20525;-60
2023/12/16 09:04:04;;;;;;;3.87;3.00;;;;;;;;;;5040291;28;20223;-60
2023/12/16 09:06:37;;;;;;;3.30;3.00;;;;;;;;;;5040198;28;20235;-59
2023/12/16 09:09:05;;;;;;;5.23;3.10;;;;;;;;;;5038422;28;20223;-59
2023/12/16 09:11:34;;;;;;;5.33;2.80;;;;;;;;;;5040382;28;20208;-60
2023/12/16 09:14:04;;;;;;;3.47;2.80;;;;;;;;;;5040353;28;20239;-60
2023/12/16 09:16:33;;;;;;;2.87;2.67;;;;;;;;;;5040156;28;20253;-60
2023/12/16 09:19:01;;;;;;;3.53;2.93;;;;;;;;;;5039585;28;20253;-59
2023/12/16 09:21:31;;;;;;;3.57;3.27;;;;;;;;;;5039597;28;20282;-59
2023/12/16 09:23:59;;;;;;;3.13;2.83;;;;;;;;;;5039718;28;20274;-61
2023/12/16 09:26:27;;;;;;;2.90;2.60;;;;;;;;;;5039785;28;20273;-59
2023/12/16 09:28:55;;;;;;;4.77;2.87;;;;;;;;;;5028172;28;20231;-59
2023/12/16 09:31:26;;;;;;;3.43;2.80;;;;;;;;;;5034911;28;20207;-59
2023/12/16 09:33:54;;;;;;;5.77;3.87;;;;;;;;;;5039968;28;20282;-61
2023/12/16 09:36:26;;;;;;;4.23;3.47;;;;;;;;;;5039487;28;20200;-59
2023/12/16 09:38:57;;;;;;;4.27;3.40;;;;;;;;;;5039934;28;20214;-59
2023/12/16 09:41:25;;;;;;;6.50;3.43;;;;;;;;;;5039694;28;20202;-59
2023/12/16 09:43:54;;;;;;;4.93;3.60;;;;;;;;;;5039687;28;20231;-59
2023/12/16 09:46:24;;;;;;;3.63;3.27;;;;;;;;;;5039465;28;20254;-59
2023/12/16 09:48:53;;;;;;;5.00;3.17;;;;;;;;;;5039571;28;20199;-59
2023/12/16 09:51:23;;;;;;;4.13;3.53;;;;;;;;;;5039096;28;20442;-59
2023/12/16 09:53:51;;;;;;;5.73;3.27;;;;;;;;;;5039629;28;20223;-60
2023/12/16 09:56:21;;;;;;;3.37;3.07;;;;;;;;;;5039766;28;20200;-59
2023/12/16 09:58:51;;;;;;;4.23;3.67;;;;;;;;;;5039700;28;20207;-59
2023/12/16 10:01:20;;;;;;;6.53;2.90;;;;;;;;;;5039191;28;20196;-59
2023/12/16 10:03:50;;;;;;;6.03;3.67;;;;;;;;;;5039115;28;20259;-59
2023/12/16 10:06:18;;;;;;;4.43;3.33;;;;;;;;;;5038382;28;20492;-59
2023/12/16 10:08:47;;;;;;;4.73;3.40;;;;;;;;;;5039204;28;20261;-60
2023/12/16 10:11:16;;;;;;;3.80;2.83;;;;;;;;;;5039301;28;20218;-59
2023/12/16 10:14:03;;;;;;;4.07;3.03;;;;;;;;;;5039072;28;20238;-59
2023/12/16 10:16:33;;;;;;;3.07;2.60;;;;;;;;;;5031729;28;20231;-59
2023/12/16 10:19:01;;;;;;;4.50;3.13;;;;;;;;;;5038725;28;20207;-59
2023/12/16 10:21:31;;;;;;;3.57;3.27;;;;;;;;;;5039240;28;20200;-59
2023/12/16 10:24:00;;;;;;;3.57;2.57;;;;;;;;;;5038648;28;20224;-59
2023/12/16 10:26:30;;;;;;;4.60;3.43;;;;;;;;;;5039235;28;20219;-59
2023/12/16 10:29:07;;;;;;;6.10;3.50;;;;;;;;;;5031322;28;20204;-60
2023/12/16 10:31:44;;;;;;;3.70;3.40;;;;;;;;;;5037907;28;20207;-60
2023/12/16 10:34:14;;;;;;;4.37;3.40;;;;;;;;;;5037910;28;20223;-59
2023/12/16 10:36:42;;;;;;;3.40;3.00;;;;;;;;;;5038207;28;20246;-59
2023/12/16 10:39:10;;;;;;;3.83;3.30;;;;;;;;;;5038551;28;20212;-60
2023/12/16 10:41:42;;;;;;;8.17;3.57;;;;;;;;;;5038537;28;20214;-59
2023/12/16 10:44:11;;;;;;;5.73;3.67;;;;;;;;;;5037401;28;20454;-59
2023/12/16 10:46:41;;;;;;;5.90;4.20;;;;;;;;;;5037795;28;20834;-59
2023/12/16 10:49:11;;;;;;;9.13;4.37;;;;;;;;;;5035648;28;20553;-59
2023/12/16 10:51:43;;;;;;;6.63;3.93;;;;;;;;;;5038060;28;20442;-59
2023/12/16 10:54:16;;;;;;;6.00;4.80;;;;;;;;;;5037777;28;20516;-60
2023/12/16 10:56:47;;;;;;;7.37;4.00;;;;;;;;;;5038312;28;20442;-59
2023/12/16 10:59:19;;;;;;;5.60;4.40;;;;;;;;;;5028992;28;20930;-59
2023/12/16 11:01:55;;;;;;;5.10;4.30;;;;;;;;;;5037244;28;21023;-59
2023/12/16 11:04:25;;;;;;;5.33;3.93;;;;;;;;;;5037346;28;20461;-59
2023/12/16 11:06:57;;;;;;;7.27;5.23;;;;;;;;;;5037470;28;20478;-59
2023/12/16 11:09:26;;;;;;;6.47;4.03;;;;;;;;;;5037672;28;20243;-62
2023/12/16 11:11:57;;;;;;;6.83;3.70;;;;;;;;;;5035870;28;20446;-61
2023/12/16 11:14:26;;;;;;;5.87;4.20;;;;;;;;;;5036647;28;20534;-61
2023/12/16 11:17:02;;;;;;;5.93;4.83;;;;;;;;;;5036976;28;20828;-60
2023/12/16 11:19:35;;;;;;;4.87;4.30;;;;;;;;;;5036727;28;20986;-61
2023/12/16 11:22:03;;;;;;;9.70;5.37;;;;;;;;;;5037438;28;20439;-60
2023/12/16 11:24:39;;;;;;;9.53;4.67;;;;;;;;;;5036359;28;20251;-60
2023/12/16 11:27:07;;;;;;;9.30;5.07;;;;;;;;;;5035979;28;20837;-62
2023/12/16 11:29:35;;;;;;;7.83;4.80;;;;;;;;;;5037417;28;20207;-62
2023/12/16 11:32:03;;;;;;;5.67;3.87;;;;;;;;;;5036875;28;20933;-62
2023/12/16 11:34:48;;;;;;;8.13;5.00;;;;;;;;;;5037364;28;20477;-62
2023/12/16 11:37:42;;;;;;;6.57;4.40;;;;;;;;;;5036576;28;20441;-62
2023/12/16 11:40:30;;;;;;;5.67;3.70;;;;;;;;;;5036729;28;20226;-62
2023/12/16 11:43:02;;;;;;;8.63;5.47;;;;;;;;;;5036660;28;20219;-60
2023/12/16 11:45:37;;;;;;;10.13;4.50;;;;;;;;;;5037282;28;20678;-60
2023/12/16 11:48:06;;;;;;;11.33;4.47;;;;;;;;;;5036613;28;21092;-60
2023/12/16 11:50:45;;;;;;;5.10;4.00;;;;;;;;;;5037084;28;20940;-60
2023/12/16 11:53:17;;;;;;;5.47;4.20;;;;;;;;;;5036830;28;20456;-60
2023/12/16 11:55:46;;;;;;;5.00;3.87;;;;;;;;;;5036972;28;20992;-60
2023/12/16 11:58:18;;;;;;;6.60;4.37;;;;;;;;;;5036986;28;20204;-60
2023/12/16 12:00:48;;;;;;;8.40;4.60;;;;;;;;;;5036982;28;20574;-60
2023/12/16 12:03:16;;;;;;;6.10;3.93;;;;;;;;;;5036726;28;20346;-60
2023/12/16 12:05:46;;;;;;;6.00;4.80;;;;;;;;;;5036426;28;20242;-61
2023/12/16 12:08:14;;;;;;;8.47;4.50;;;;;;;;;;5037237;28;20568;-60
2023/12/16 12:10:43;;;;;;;6.40;4.13;;;;;;;;;;5036796;28;20442;-60
2023/12/16 12:13:11;;;;;;;6.47;4.53;;;;;;;;;;5037013;28;20809;-60
2023/12/16 12:15:39;;;;;;;4.37;3.60;;;;;;;;;;5036577;28;20215;-60
2023/12/16 12:18:07;;;;;;;7.03;4.70;;;;;;;;;;5036485;28;20832;-60
2023/12/16 12:20:36;;;;;;;5.33;4.33;;;;;;;;;;5036828;28;20449;-60
2023/12/16 12:23:06;;;;;;;6.33;3.77;;;;;;;;;;5036565;28;21003;-60
2023/12/16 12:25:34;;;;;;;8.13;4.40;;;;;;;;;;5036603;28;20842;-60
2023/12/16 12:28:09;;;;;;;5.90;4.70;;;;;;;;;;5036284;28;20227;-61
2023/12/16 12:30:37;;;;;;;6.90;4.03;;;;;;;;;;5040658;28;20249;-60
2023/12/16 12:33:06;;;;;;;4.33;3.50;;;;;;;;;;5040219;28;20725;-60
2023/12/16 12:35:34;;;;;;;5.50;3.67;;;;;;;;;;5040610;28;20282;-60
2023/12/16 12:38:03;;;;;;;5.13;3.90;;;;;;;;;;5040696;28;20196;-60
2023/12/16 12:40:33;;;;;;;4.97;3.57;;;;;;;;;;5040761;28;20235;-59
2023/12/16 12:43:01;;;;;;;7.07;4.50;;;;;;;;;;5040696;28;20239;-60
2023/12/16 12:45:31;;;;;;;5.20;4.03;;;;;;;;;;5040625;28;20203;-60
2023/12/16 12:48:10;;;;;;;4.90;3.97;;;;;;;;;;5040257;28;20215;-60
2023/12/16 12:50:38;;;;;;;4.03;3.50;;;;;;;;;;5040467;28;20207;-60
2023/12/16 12:53:15;;;;;;;5.73;3.90;;;;;;;;;;5040255;28;20234;-60
2023/12/16 12:55:54;;;;;;;4.67;3.43;;;;;;;;;;5035792;28;20207;-60
2023/12/16 12:58:24;;;;;;;5.83;3.83;;;;;;;;;;5040182;28;20218;-60
2023/12/16 13:00:58;;;;;;;6.57;4.43;;;;;;;;;;5040183;28;20233;-60
2023/12/16 13:03:26;;;;;;;5.60;4.03;;;;;;;;;;5040297;28;20224;-60
2023/12/16 13:05:55;;;;;;;5.77;3.83;;;;;;;;;;5039303;28;20753;-60
2023/12/16 13:08:33;;;;;;;6.53;4.23;;;;;;;;;;5040506;28;20219;-61
2023/12/16 13:11:04;;;;;;;6.77;4.00;;;;;;;;;;5040384;28;20217;-61
2023/12/16 13:13:33;;;;;;;6.90;4.10;;;;;;;;;;5039504;28;20220;-61
2023/12/16 13:16:01;;;;;;;5.03;4.20;;;;;;;;;;5039960;28;20208;-61
2023/12/16 13:18:30;;;;;;;5.43;3.73;;;;;;;;;;5039363;28;20239;-62
2023/12/16 13:21:00;;;;;;;4.83;3.80;;;;;;;;;;5039851;28;20203;-62
2023/12/16 13:23:28;;;;;;;6.60;4.27;;;;;;;;;;5039745;28;20227;-59
2023/12/16 13:25:56;;;;;;;9.17;4.07;;;;;;;;;;5039696;28;20207;-59
2023/12/16 13:28:27;;;;;;;6.87;4.13;;;;;;;;;;5039826;28;20228;-61
2023/12/16 13:30:55;;;;;;;5.60;3.70;;;;;;;;;;5039445;28;20211;-59
2023/12/16 13:33:25;;;;;;;4.77;3.47;;;;;;;;;;5039318;28;20219;-61
2023/12/16 13:35:54;;;;;;;5.67;3.80;;;;;;;;;;5039461;28;20218;-59
2023/12/16 13:38:22;;;;;;;6.53;4.40;;;;;;;;;;5039591;28;20255;-61
2023/12/16 13:40:52;;;;;;;5.83;4.00;;;;;;;;;;5038626;28;20290;-59
2023/12/16 13:43:20;;;;;;;6.50;4.33;;;;;;;;;;5039584;28;20229;-59
2023/12/16 13:45:50;;;;;;;6.47;3.90;;;;;;;;;;5039328;28;20634;-60
2023/12/16 13:48:20;;;;;;;6.60;4.33;;;;;;;;;;5039062;28;20741;-60
2023/12/16 13:50:49;;;;;;;5.33;3.90;;;;;;;;;;5039178;28;20203;-59
2023/12/16 13:53:17;;;;;;;7.23;3.60;;;;;;;;;;5039299;28;20230;-59
2023/12/16 13:55:46;;;;;;;7.10;4.03;;;;;;;;;;5039258;28;20291;-59
2023/12/16 13:58:15;;;;;;;5.07;3.70;;;;;;;;;;5039481;28;20254;-60
2023/12/16 14:00:43;;;;;;;6.33;3.83;;;;;;;;;;5038528;28;20550;-62
2023/12/16 14:03:13;;;;;;;5.17;3.93;;;;;;;;;;5038946;28;20353;-62
2023/12/16 14:05:41;;;;;;;4.37;3.37;;;;;;;;;;5038627;28;20235;-61
2023/12/16 14:08:11;;;;;;;5.70;4.10;;;;;;;;;;5039004;28;20227;-61
2023/12/16 14:10:39;;;;;;;6.47;4.03;;;;;;;;;;5038872;28;20210;-59
2023/12/16 14:13:07;;;;;;;8.37;4.90;;;;;;;;;;5039040;28;20231;-60
2023/12/16 14:15:36;;;;;;;9.07;4.77;;;;;;;;;;5038728;28;20279;-61
2023/12/16 14:18:04;;;;;;;7.00;4.80;;;;;;;;;;5038518;28;20211;-62
2023/12/16 14:20:34;;;;;;;5.47;4.13;;;;;;;;;;5038649;28;20634;-62
2023/12/16 14:23:02;;;;;;;5.90;4.10;;;;;;;;;;5038753;28;20223;-61
2023/12/16 14:25:30;;;;;;;9.37;5.10;;;;;;;;;;5038379;28;20730;-62
2023/12/16 14:27:59;;;;;;;9.27;4.60;;;;;;;;;;5038600;28;20640;-61
2023/12/16 14:30:27;;;;;;;4.13;3.73;;;;;;;;;;5038615;28;20203;-62
2023/12/16 14:32:55;;;;;;;6.03;3.47;;;;;;;;;;5037879;28;20629;-61
2023/12/16 14:35:24;;;;;;;4.83;3.73;;;;;;;;;;5038769;28;20200;-62
2023/12/16 14:37:53;;;;;;;4.63;3.83;;;;;;;;;;5038378;28;20203;-62
2023/12/16 14:40:21;;;;;;;7.00;4.20;;;;;;;;;;5038668;28;20226;-61
2023/12/16 14:42:50;;;;;;;7.37;3.93;;;;;;;;;;5033448;28;20204;-61
2023/12/16 14:45:18;;;;;;;7.60;4.40;;;;;;;;;;5036109;28;20208;-61
2023/12/16 14:47:46;;;;;;;6.30;3.53;;;;;;;;;;5036662;28;20207;-59
2023/12/16 14:50:14;;;;;;;6.30;4.20;;;;;;;;;;5032097;28;20238;-59
2023/12/16 14:52:42;;;;;;;5.53;3.97;;;;;;;;;;5038054;28;20204;-61
2023/12/16 14:55:12;;;;;;;8.33;3.57;;;;;;;;;;5038234;28;20222;-61